createdAt,value
2023-05-21T00:03:19.702Z,15.40
2023-05-21T00:04:07.239Z,15.78
2023-05-21T00:05:07.152Z,15.83
2023-05-21T00:06:07.307Z,15.83
2023-05-21T00:07:07.385Z,15.69
2023-05-21T00:08:07.097Z,15.68
2023-05-21T00:09:07.096Z,15.64
2023-05-21T00:10:07.091Z,15.68
2023-05-21T00:11:07.025Z,15.71
2023-05-21T00:12:07.059Z,15.74
2023-05-21T00:13:07.102Z,15.76
2023-05-21T00:14:07.312Z,15.74
2023-05-21T00:15:07.034Z,15.75
2023-05-21T00:16:07.837Z,15.76
2023-05-21T00:17:07.041Z,15.75
2023-05-21T00:18:06.986Z,15.75
2023-05-21T00:19:07.093Z,15.74
2023-05-21T00:20:06.964Z,15.75
2023-05-21T00:21:06.960Z,15.77
2023-05-21T00:22:06.964Z,15.72
2023-05-21T00:23:07.105Z,15.74
2023-05-21T00:24:06.982Z,15.76
2023-05-21T00:25:06.967Z,15.78
2023-05-21T00:26:06.979Z,15.79
2023-05-21T00:27:06.934Z,15.71
2023-05-21T00:28:06.910Z,15.66
2023-05-21T00:29:06.983Z,15.69
2023-05-21T00:30:07.823Z,15.70
2023-05-21T00:31:06.890Z,15.69
2023-05-21T00:32:06.970Z,15.68
2023-05-21T00:33:06.931Z,15.67
2023-05-21T00:34:06.877Z,15.56
2023-05-21T00:35:06.937Z,15.46
2023-05-21T00:36:06.859Z,15.45
2023-05-21T00:37:06.846Z,15.37
2023-05-21T00:38:06.856Z,15.34
2023-05-21T00:39:06.870Z,15.31
2023-05-21T00:40:06.865Z,15.33
2023-05-21T00:41:07.286Z,15.34
2023-05-21T00:42:06.983Z,15.37
2023-05-21T00:43:06.996Z,15.36
2023-05-21T00:44:06.990Z,15.35
2023-05-21T00:45:07.005Z,15.35
2023-05-21T00:46:07.100Z,15.34
2023-05-21T00:47:07.750Z,15.35
2023-05-21T00:48:07.061Z,15.34
2023-05-21T00:49:07.072Z,15.34
2023-05-21T00:50:07.052Z,15.32
2023-05-21T00:51:07.204Z,15.29
2023-05-21T00:52:07.116Z,15.25
2023-05-21T00:53:07.753Z,15.18
2023-05-21T00:54:07.180Z,15.11
2023-05-21T00:55:07.219Z,15.01
2023-05-21T00:56:07.376Z,14.96
2023-05-21T00:57:07.278Z,14.91
2023-05-21T00:58:07.285Z,14.90
2023-05-21T00:59:07.319Z,14.88
2023-05-21T01:00:07.314Z,14.86
2023-05-21T01:01:07.477Z,14.79
2023-05-21T01:02:07.413Z,14.76
2023-05-21T01:05:00.017Z,14.55
2023-05-21T01:06:00.041Z,14.75
2023-05-21T01:08:19.470Z,14.70
2023-05-21T01:09:19.994Z,14.70
2023-05-21T01:17:28.661Z,14.12
2023-05-21T01:18:28.586Z,14.30
2023-05-21T01:22:18.862Z,14.14
2023-05-21T01:23:08.588Z,14.30
2023-05-21T01:24:08.633Z,14.35
2023-05-21T01:25:08.606Z,14.33
2023-05-21T01:26:08.635Z,14.32
2023-05-21T01:27:08.665Z,14.33
2023-05-21T01:28:09.075Z,14.36
2023-05-21T01:29:10.020Z,14.32
2023-05-21T01:30:09.871Z,14.29
2023-05-21T01:33:21.078Z,13.95
2023-05-21T01:36:07.568Z,14.08
2023-05-21T01:37:07.558Z,14.11
2023-05-21T01:38:07.778Z,14.12
2023-05-21T01:39:07.582Z,14.08
2023-05-21T01:40:07.486Z,14.02
2023-05-21T01:41:07.462Z,14.00
2023-05-21T01:42:07.574Z,13.98
2023-05-21T01:43:08.154Z,13.96
2023-05-21T01:44:07.513Z,13.94
2023-05-21T01:45:07.487Z,13.91
2023-05-21T01:46:07.561Z,13.90
2023-05-21T01:47:07.441Z,13.97
2023-05-21T01:48:07.468Z,13.98
2023-05-21T01:49:07.433Z,14.01
2023-05-21T01:50:07.490Z,14.00
2023-05-21T01:51:07.431Z,14.00
2023-05-21T01:52:07.422Z,14.01
2023-05-21T01:53:07.450Z,14.00
2023-05-21T01:54:07.378Z,14.00
2023-05-21T01:55:07.359Z,13.98
2023-05-21T01:56:07.406Z,13.97
2023-05-21T01:57:07.374Z,13.89
2023-05-21T01:58:07.430Z,13.81
2023-05-21T01:59:07.372Z,13.80
2023-05-21T02:00:07.334Z,13.77
2023-05-21T02:01:07.402Z,13.79
2023-05-21T02:02:07.386Z,13.82
2023-05-21T02:03:07.482Z,13.85
2023-05-21T02:04:08.542Z,13.87
2023-05-21T02:05:07.346Z,13.88
2023-05-21T02:06:07.360Z,13.86
2023-05-21T02:07:07.345Z,13.84
2023-05-21T02:08:07.289Z,13.79
2023-05-21T02:09:07.295Z,13.78
2023-05-21T02:10:07.260Z,13.78
2023-05-21T02:11:07.889Z,13.74
2023-05-21T02:12:07.284Z,13.71
2023-05-21T02:13:07.286Z,13.65
2023-05-21T02:14:07.284Z,13.58
2023-05-21T02:15:07.335Z,13.54
2023-05-21T02:16:07.258Z,13.53
2023-05-21T02:17:07.248Z,13.51
2023-05-21T02:18:07.285Z,13.53
2023-05-21T02:19:07.235Z,13.52
2023-05-21T02:20:07.219Z,13.54
2023-05-21T02:21:07.271Z,13.54
2023-05-21T02:22:07.243Z,13.53
2023-05-21T02:23:07.273Z,13.51
2023-05-21T02:27:31.098Z,13.00
2023-05-21T02:28:30.894Z,13.18
2023-05-21T02:29:30.902Z,13.14
2023-05-21T02:30:30.907Z,13.11
2023-05-21T02:31:30.890Z,13.10
2023-05-21T02:32:30.897Z,13.10
2023-05-21T02:34:51.050Z,13.00
2023-05-21T02:35:50.636Z,12.99
2023-05-21T02:36:50.784Z,12.98
2023-05-21T02:37:50.676Z,13.02
2023-05-21T02:38:50.643Z,13.05
2023-05-21T02:39:50.681Z,13.09
2023-05-21T02:40:50.678Z,13.12
2023-05-21T02:41:50.600Z,13.12
2023-05-21T02:42:50.717Z,13.15
2023-05-21T02:43:50.637Z,13.17
2023-05-21T02:44:50.591Z,13.20
2023-05-21T02:45:50.623Z,13.23
2023-05-21T02:46:50.610Z,13.25
2023-05-21T02:47:50.565Z,13.28
2023-05-21T02:48:50.554Z,13.28
2023-05-21T02:49:50.624Z,13.29
2023-05-21T02:50:50.968Z,13.29
2023-05-21T02:51:51.070Z,13.25
2023-05-21T02:55:01.315Z,13.01
2023-05-21T02:58:40.196Z,13.17
2023-05-21T02:59:40.088Z,13.17
2023-05-21T03:00:40.153Z,13.15
2023-05-21T03:03:31.576Z,12.90
2023-05-21T03:04:31.239Z,13.10
2023-05-21T03:07:27.455Z,13.17
2023-05-21T03:08:26.478Z,13.23
2023-05-21T03:09:26.506Z,13.26
2023-05-21T03:10:26.528Z,13.27
2023-05-21T03:11:26.507Z,13.27
2023-05-21T03:12:26.606Z,13.25
2023-05-21T03:13:26.499Z,13.22
2023-05-21T03:14:26.468Z,13.16
2023-05-21T03:15:26.458Z,13.19
2023-05-21T03:16:26.451Z,13.25
2023-05-21T03:17:26.446Z,13.60
2023-05-21T03:18:26.470Z,13.59
2023-05-21T03:19:26.647Z,13.51
2023-05-21T03:20:26.460Z,13.48
2023-05-21T03:21:26.827Z,13.48
2023-05-21T03:22:26.416Z,13.44
2023-05-21T03:23:26.394Z,13.43
2023-05-21T03:24:26.392Z,13.38
2023-05-21T03:25:26.408Z,13.32
2023-05-21T03:26:26.372Z,13.25
2023-05-21T03:27:26.361Z,13.21
2023-05-21T03:28:26.827Z,13.19
2023-05-21T03:29:26.368Z,13.19
2023-05-21T03:30:26.335Z,13.22
2023-05-21T03:31:26.408Z,13.23
2023-05-21T03:32:27.254Z,13.25
2023-05-21T03:33:26.365Z,13.25
2023-05-21T03:34:26.368Z,13.26
2023-05-21T03:35:26.364Z,13.26
2023-05-21T03:36:26.363Z,13.29
2023-05-21T03:37:26.403Z,13.32
2023-05-21T03:38:26.604Z,13.36
2023-05-21T03:39:26.294Z,13.33
2023-05-21T03:40:26.808Z,13.18
2023-05-21T03:41:26.318Z,13.17
2023-05-21T03:42:26.288Z,13.17
2023-05-21T03:43:26.269Z,13.14
2023-05-21T03:44:26.214Z,13.16
2023-05-21T03:45:26.437Z,13.11
2023-05-21T03:46:26.793Z,13.09
2023-05-21T03:47:26.240Z,13.09
2023-05-21T03:48:26.236Z,13.07
2023-05-21T03:49:26.244Z,13.09
2023-05-21T03:50:26.213Z,13.09
2023-05-21T03:51:26.494Z,13.12
2023-05-21T03:53:46.153Z,13.41
2023-05-21T03:54:46.029Z,13.54
2023-05-21T03:55:46.139Z,13.55
2023-05-21T03:58:05.638Z,13.41
2023-05-21T04:02:13.667Z,13.20
2023-05-21T04:13:11.026Z,12.72
2023-05-21T04:14:10.357Z,12.91
2023-05-21T04:15:10.346Z,12.95
2023-05-21T04:16:10.366Z,12.93
2023-05-21T04:17:10.970Z,12.95
2023-05-21T04:19:43.994Z,12.91
2023-05-21T04:20:30.454Z,13.01
2023-05-21T04:21:30.363Z,13.06
2023-05-21T04:22:33.614Z,13.12
2023-05-21T04:29:32.476Z,13.09
2023-05-21T04:33:11.899Z,13.18
2023-05-21T04:35:58.149Z,13.12
2023-05-21T04:36:58.015Z,13.33
2023-05-21T04:37:58.645Z,13.41
2023-05-21T04:40:17.796Z,13.44
2023-05-21T04:43:09.550Z,13.30
2023-05-21T04:44:09.511Z,13.53
2023-05-21T04:45:09.572Z,13.56
2023-05-21T04:46:10.186Z,13.60
2023-05-21T04:47:09.701Z,13.61
2023-05-21T04:48:09.676Z,13.63
2023-05-21T04:49:09.510Z,13.64
2023-05-21T04:50:09.466Z,13.69
2023-05-21T04:51:09.481Z,13.72
2023-05-21T04:52:09.483Z,13.78
2023-05-21T04:53:09.501Z,13.80
2023-05-21T04:54:09.489Z,13.84
2023-05-21T04:55:09.432Z,13.90
2023-05-21T04:56:09.417Z,13.96
2023-05-21T04:57:09.413Z,14.01
2023-05-21T04:58:09.928Z,14.05
2023-05-21T04:59:09.432Z,14.05
2023-05-21T05:00:09.419Z,14.01
2023-05-21T05:01:09.452Z,14.01
2023-05-21T05:02:09.469Z,14.06
2023-05-21T05:03:09.508Z,14.10
2023-05-21T05:04:09.465Z,14.15
2023-05-21T05:05:09.380Z,14.20
2023-05-21T05:06:09.470Z,14.26
2023-05-21T05:07:09.420Z,14.32
2023-05-21T05:08:09.576Z,14.33
2023-05-21T05:09:09.512Z,14.29
2023-05-21T05:10:09.516Z,14.25
2023-05-21T05:11:09.617Z,14.25
2023-05-21T05:15:15.394Z,14.14
2023-05-21T05:16:15.120Z,14.33
2023-05-21T05:17:15.354Z,14.36
2023-05-21T05:21:33.272Z,14.33
2023-05-21T05:22:33.271Z,14.43
2023-05-21T05:23:33.957Z,14.45
2023-05-21T05:24:33.181Z,14.50
2023-05-21T05:25:33.168Z,14.54
2023-05-21T05:26:33.914Z,14.49
2023-05-21T05:27:33.170Z,14.37
2023-05-21T05:28:33.162Z,14.15
2023-05-21T05:29:33.182Z,14.08
2023-05-21T05:30:33.142Z,14.08
2023-05-21T05:31:33.280Z,14.20
2023-05-21T05:32:33.156Z,14.26
2023-05-21T05:33:33.331Z,14.31
2023-05-21T05:34:33.096Z,14.34
2023-05-21T05:35:33.113Z,14.33
2023-05-21T05:36:33.109Z,14.28
2023-05-21T05:37:33.055Z,14.26
2023-05-21T05:38:33.195Z,14.34
2023-05-21T05:39:33.072Z,14.39
2023-05-21T05:40:33.184Z,14.45
2023-05-21T05:41:33.097Z,14.41
2023-05-21T05:42:33.298Z,14.40
2023-05-21T05:46:57.473Z,14.33
2023-05-21T05:50:51.148Z,14.80
2023-05-21T05:51:50.881Z,14.80
2023-05-21T05:52:51.039Z,14.79
2023-05-21T05:53:50.850Z,14.85
2023-05-21T05:54:50.832Z,14.92
2023-05-21T05:58:10.429Z,14.87
2023-05-21T05:58:56.715Z,15.05
2023-05-21T05:59:56.737Z,15.15
2023-05-21T06:00:56.778Z,15.26
2023-05-21T06:01:56.883Z,15.33
2023-05-21T06:05:09.659Z,15.31
2023-05-21T06:05:57.440Z,15.40
2023-05-21T06:06:56.673Z,15.26
2023-05-21T06:07:56.582Z,15.29
2023-05-21T06:08:56.605Z,15.36
2023-05-21T06:09:57.340Z,15.45
2023-05-21T06:10:56.629Z,15.27
2023-05-21T06:11:56.629Z,15.26
2023-05-21T06:12:56.760Z,15.41
2023-05-21T06:13:56.967Z,15.62
2023-05-21T06:14:56.556Z,15.69
2023-05-21T06:15:56.547Z,15.76
2023-05-21T06:16:56.546Z,15.79
2023-05-21T06:17:56.561Z,15.61
2023-05-21T06:18:56.488Z,15.33
2023-05-21T06:19:56.595Z,15.07
2023-05-21T06:20:56.512Z,15.19
2023-05-21T06:21:57.336Z,15.41
2023-05-21T06:22:56.506Z,15.58
2023-05-21T06:23:56.503Z,15.70
2023-05-21T06:24:56.497Z,15.79
2023-05-21T06:25:56.431Z,15.91
2023-05-21T06:26:56.535Z,16.00
2023-05-21T06:27:56.438Z,16.11
2023-05-21T06:28:56.424Z,16.09
2023-05-21T06:29:57.373Z,16.19
2023-05-21T06:30:56.441Z,16.05
2023-05-21T06:31:57.247Z,16.13
2023-05-21T06:32:56.553Z,16.15
2023-05-21T06:33:56.581Z,16.16
2023-05-21T06:34:56.436Z,16.27
2023-05-21T06:35:56.434Z,16.04
2023-05-21T06:36:56.406Z,15.78
2023-05-21T06:37:56.400Z,15.95
2023-05-21T06:38:56.392Z,16.18
2023-05-21T06:39:56.381Z,16.32
2023-05-21T06:40:56.397Z,16.42
2023-05-21T06:41:56.527Z,16.08
2023-05-21T06:42:56.505Z,15.88
2023-05-21T06:43:56.531Z,15.86
2023-05-21T06:44:56.572Z,15.73
2023-05-21T06:45:56.657Z,15.61
2023-05-21T06:46:56.622Z,15.52
2023-05-21T06:47:56.688Z,15.71
2023-05-21T06:48:56.663Z,15.93
2023-05-21T06:49:56.674Z,16.07
2023-05-21T06:50:56.698Z,16.19
2023-05-21T06:51:56.700Z,16.35
2023-05-21T06:52:56.800Z,16.59
2023-05-21T06:53:56.802Z,16.72
2023-05-21T06:54:56.797Z,16.68
2023-05-21T06:55:56.799Z,16.56
2023-05-21T06:56:56.826Z,16.52
2023-05-21T06:57:57.034Z,16.67
2023-05-21T06:58:56.924Z,16.72
2023-05-21T06:59:56.979Z,16.74
2023-05-21T07:00:57.012Z,16.86
2023-05-21T07:01:57.069Z,16.62
2023-05-21T07:02:57.187Z,16.73
2023-05-21T07:03:57.161Z,17.02
2023-05-21T07:04:57.237Z,17.27
2023-05-21T07:05:57.823Z,17.42
2023-05-21T07:06:57.309Z,17.57
2023-05-21T07:07:57.297Z,17.63
2023-05-21T07:08:57.328Z,17.64
2023-05-21T07:09:57.341Z,17.69
2023-05-21T07:10:57.359Z,17.82
2023-05-21T07:11:57.426Z,17.83
2023-05-21T07:12:57.403Z,17.72
2023-05-21T07:13:57.438Z,17.86
2023-05-21T07:14:59.276Z,18.01
2023-05-21T07:15:57.557Z,18.23
2023-05-21T07:16:57.473Z,18.40
2023-05-21T07:17:57.543Z,18.56
2023-05-21T07:18:57.629Z,18.75
2023-05-21T07:19:57.578Z,18.91
2023-05-21T07:20:57.640Z,18.99
2023-05-21T07:21:57.673Z,19.09
2023-05-21T07:22:57.721Z,19.15
2023-05-21T07:23:57.787Z,19.02
2023-05-21T07:24:57.846Z,18.84
2023-05-21T07:25:57.861Z,18.76
2023-05-21T07:26:57.942Z,18.89
2023-05-21T07:27:57.920Z,18.96
2023-05-21T07:28:57.941Z,19.29
2023-05-21T07:29:57.987Z,19.49
2023-05-21T07:30:58.019Z,19.59
2023-05-21T07:31:58.064Z,19.67
2023-05-21T07:32:58.097Z,19.61
2023-05-21T07:33:58.067Z,19.68
2023-05-21T07:34:59.862Z,19.97
2023-05-21T07:35:58.206Z,20.20
2023-05-21T07:36:58.214Z,20.44
2023-05-21T07:37:58.254Z,20.64
2023-05-21T07:38:58.323Z,20.90
2023-05-21T07:39:58.329Z,21.28
2023-05-21T07:40:58.350Z,21.91
2023-05-21T07:41:58.378Z,22.37
2023-05-21T07:42:58.473Z,22.68
2023-05-21T07:43:58.459Z,22.73
2023-05-21T07:47:45.464Z,23.59
2023-05-21T07:48:45.253Z,23.72
2023-05-21T07:49:45.196Z,22.38
2023-05-21T07:53:23.527Z,23.97
2023-05-21T07:54:23.489Z,24.50
2023-05-21T08:00:08.220Z,25.56
2023-05-21T08:01:07.907Z,26.35
2023-05-21T08:02:07.934Z,26.03
2023-05-21T08:03:08.555Z,25.93
2023-05-21T08:05:27.410Z,25.19
2023-05-21T08:06:27.401Z,25.31
2023-05-21T08:07:27.406Z,25.60
2023-05-21T08:08:27.505Z,26.04
2023-05-21T08:09:27.528Z,25.88
2023-05-21T08:10:27.834Z,25.60
2023-05-21T08:11:27.346Z,25.29
2023-05-21T08:12:27.456Z,25.61
2023-05-21T08:13:27.378Z,26.01
2023-05-21T08:14:27.365Z,26.30
2023-05-21T08:15:27.368Z,26.82
2023-05-21T08:16:27.373Z,27.19
2023-05-21T08:17:27.611Z,26.97
2023-05-21T08:18:29.010Z,27.08
2023-05-21T08:19:27.416Z,27.71
2023-05-21T08:20:27.286Z,28.42
2023-05-21T08:21:27.288Z,28.75
2023-05-21T08:22:28.018Z,29.24
2023-05-21T08:23:27.297Z,29.66
2023-05-21T08:24:27.232Z,29.90
2023-05-21T08:25:27.234Z,29.98
2023-05-21T08:26:27.246Z,30.30
2023-05-21T08:27:27.238Z,30.25
2023-05-21T08:28:27.258Z,30.46
2023-05-21T08:29:27.247Z,30.07
2023-05-21T08:30:27.196Z,30.60
2023-05-21T08:31:27.230Z,31.30
2023-05-21T08:32:27.207Z,31.83
2023-05-21T08:33:27.179Z,32.29
2023-05-21T08:34:27.216Z,32.66
2023-05-21T08:35:27.249Z,33.01
2023-05-21T08:36:27.158Z,32.11
2023-05-21T08:37:27.184Z,31.44
2023-05-21T08:38:29.485Z,31.69
2023-05-21T08:39:27.178Z,32.09
2023-05-21T08:40:27.209Z,32.67
2023-05-21T08:41:27.217Z,33.07
2023-05-21T08:42:36.498Z,33.26
2023-05-21T08:43:28.187Z,33.18
2023-05-21T08:44:27.154Z,33.10
2023-05-21T08:45:27.212Z,33.21
2023-05-21T08:46:27.247Z,33.44
2023-05-21T08:47:27.197Z,33.60
2023-05-21T08:48:27.158Z,33.67
2023-05-21T08:49:27.516Z,33.80
2023-05-21T08:50:27.596Z,33.74
2023-05-21T08:51:27.129Z,33.44
2023-05-21T08:52:27.133Z,32.62
2023-05-21T08:53:28.986Z,32.46
2023-05-21T08:54:27.091Z,32.94
2023-05-21T08:55:27.114Z,33.36
2023-05-21T08:56:27.240Z,33.79
2023-05-21T08:57:27.225Z,33.97
2023-05-21T08:58:27.235Z,34.12
2023-05-21T08:59:27.437Z,34.34
2023-05-21T09:00:27.332Z,34.16
2023-05-21T09:01:27.434Z,32.60
2023-05-21T09:02:27.543Z,32.34
2023-05-21T09:03:28.858Z,32.70
2023-05-21T09:06:10.827Z,34.18
2023-05-21T09:07:10.343Z,34.92
2023-05-21T09:18:37.410Z,34.29
2023-05-21T09:19:37.547Z,34.66
2023-05-21T09:20:37.366Z,33.93
2023-05-21T09:21:37.372Z,34.17
2023-05-21T09:22:37.409Z,34.22
2023-05-21T09:23:37.557Z,34.95
2023-05-21T09:24:37.358Z,35.44
2023-05-21T09:25:37.551Z,35.21
2023-05-21T09:26:37.364Z,35.01
2023-05-21T09:27:37.299Z,34.09
2023-05-21T09:28:37.287Z,34.39
2023-05-21T09:29:37.523Z,33.71
2023-05-21T09:30:37.558Z,33.99
2023-05-21T09:31:37.303Z,33.91
2023-05-21T09:32:37.300Z,33.51
2023-05-21T09:33:37.380Z,33.28
2023-05-21T09:34:37.308Z,33.59
2023-05-21T09:35:38.179Z,33.52
2023-05-21T09:36:37.264Z,33.47
2023-05-21T09:37:37.428Z,33.23
2023-05-21T09:38:37.290Z,33.30
2023-05-21T09:39:37.309Z,33.24
2023-05-21T09:40:37.500Z,33.67
2023-05-21T09:41:37.389Z,34.68
2023-05-21T09:42:37.575Z,35.24
2023-05-21T09:43:37.452Z,35.24
2023-05-21T09:44:37.468Z,35.88
2023-05-21T09:45:37.821Z,35.63
2023-05-21T09:46:37.559Z,36.37
2023-05-21T09:47:38.501Z,36.80
2023-05-21T09:48:37.606Z,37.10
2023-05-21T09:49:37.692Z,35.90
2023-05-21T09:50:38.023Z,35.91
2023-05-21T09:51:37.736Z,35.95
2023-05-21T09:52:39.144Z,36.20
2023-05-21T09:53:37.725Z,35.73
2023-05-21T09:54:37.709Z,36.31
2023-05-21T09:55:37.750Z,36.79
2023-05-21T09:56:37.761Z,36.42
2023-05-21T10:02:21.461Z,33.18
2023-05-21T10:03:21.290Z,33.39
2023-05-21T10:04:21.233Z,33.42
2023-05-21T10:05:21.226Z,33.41
2023-05-21T10:06:21.269Z,33.02
2023-05-21T10:07:21.199Z,32.28
2023-05-21T10:08:21.174Z,32.05
2023-05-21T10:09:21.202Z,32.13
2023-05-21T10:13:05.465Z,31.37
2023-05-21T10:14:05.292Z,31.39
2023-05-21T10:23:43.318Z,32.45
2023-05-21T10:24:42.701Z,32.97
2023-05-21T10:25:42.670Z,32.81
2023-05-21T10:33:23.767Z,32.20
2023-05-21T10:34:23.539Z,32.91
2023-05-21T10:48:54.375Z,31.62
2023-05-21T10:49:54.075Z,31.23
2023-05-21T10:50:54.457Z,30.49
2023-05-21T10:51:54.142Z,30.33
2023-05-21T10:54:13.641Z,30.14
2023-05-21T10:55:13.479Z,30.27
2023-05-21T11:04:14.841Z,29.65
2023-05-21T11:05:14.661Z,30.10
2023-05-21T11:06:14.668Z,29.97
2023-05-21T11:09:20.786Z,29.48
2023-05-21T11:10:20.116Z,29.75
2023-05-21T11:11:20.104Z,30.09
2023-05-21T11:12:20.240Z,30.23
2023-05-21T11:19:21.105Z,30.91
2023-05-21T11:20:20.693Z,31.54
2023-05-21T11:21:20.761Z,31.68
2023-05-21T11:22:20.779Z,32.04
2023-05-21T11:25:13.802Z,31.23
2023-05-21T11:26:13.461Z,31.67
2023-05-21T11:27:13.540Z,31.47
2023-05-21T11:28:13.483Z,31.87
2023-05-21T11:29:13.691Z,32.14
2023-05-21T11:31:59.157Z,31.59
2023-05-21T11:32:58.962Z,31.96
2023-05-21T11:33:58.773Z,32.44
2023-05-21T11:34:59.198Z,32.72
2023-05-21T11:35:58.899Z,32.67
2023-05-21T11:36:58.796Z,32.33
2023-05-21T11:53:23.192Z,31.45
2023-05-21T11:54:23.060Z,30.72
2023-05-21T11:55:23.017Z,30.29
2023-05-21T11:56:23.025Z,30.23
2023-05-21T11:57:23.090Z,29.68
2023-05-21T11:58:22.969Z,29.00
2023-05-21T11:59:22.935Z,28.72
2023-05-21T12:00:22.904Z,28.57
2023-05-21T12:01:22.929Z,28.52
2023-05-21T12:02:23.025Z,28.69
2023-05-21T12:07:27.267Z,28.30
2023-05-21T12:08:26.393Z,28.78
2023-05-21T12:09:26.422Z,28.53
2023-05-21T12:10:26.467Z,28.27
2023-05-21T12:11:26.663Z,28.16
2023-05-21T12:12:27.191Z,28.25
2023-05-21T12:13:26.318Z,28.38
2023-05-21T12:14:26.536Z,28.35
2023-05-21T12:15:26.398Z,28.18
2023-05-21T12:16:26.372Z,28.17
2023-05-21T12:17:26.336Z,28.40
2023-05-21T12:18:26.319Z,28.46
2023-05-21T12:19:26.369Z,28.53
2023-05-21T12:20:26.290Z,28.62
2023-05-21T12:21:26.270Z,28.72
2023-05-21T12:22:26.274Z,28.69
2023-05-21T12:23:26.258Z,28.66
2023-05-21T12:24:26.272Z,28.83
2023-05-21T12:25:26.262Z,28.97
2023-05-21T12:26:26.273Z,29.04
2023-05-21T12:27:26.236Z,29.06
2023-05-21T12:28:27.212Z,29.18
2023-05-21T12:29:26.196Z,29.32
2023-05-21T12:30:26.311Z,29.48
2023-05-21T12:31:26.211Z,29.56
2023-05-21T12:32:26.264Z,29.67
2023-05-21T12:33:26.925Z,29.66
2023-05-21T12:34:26.214Z,29.61
2023-05-21T12:35:26.256Z,29.46
2023-05-21T12:36:26.138Z,29.36
2023-05-21T12:37:26.159Z,29.40
2023-05-21T12:38:26.161Z,29.45
2023-05-21T12:39:26.125Z,29.59
2023-05-21T12:40:26.162Z,29.65
2023-05-21T12:41:26.149Z,29.72
2023-05-21T12:42:26.189Z,29.69
2023-05-21T12:43:26.132Z,29.70
2023-05-21T12:44:26.089Z,29.69
2023-05-21T12:45:26.110Z,29.62
2023-05-21T12:46:26.179Z,29.61
2023-05-21T12:47:26.127Z,29.55
2023-05-21T12:48:26.068Z,29.54
2023-05-21T12:49:26.113Z,29.53
2023-05-21T12:50:26.029Z,29.55
2023-05-21T12:51:26.035Z,29.50
2023-05-21T12:52:26.101Z,29.55
2023-05-21T12:53:26.049Z,29.60
2023-05-21T12:54:26.046Z,29.65
2023-05-21T12:55:26.024Z,29.70
2023-05-21T12:56:26.071Z,29.52
2023-05-21T12:57:26.029Z,29.33
2023-05-21T12:58:26.001Z,29.39
2023-05-21T12:59:26.051Z,29.31
2023-05-21T13:00:25.996Z,29.20
2023-05-21T13:01:26.025Z,29.03
2023-05-21T13:02:26.071Z,29.03
2023-05-21T13:03:25.996Z,28.81
2023-05-21T13:04:26.072Z,28.73
2023-05-21T13:05:25.943Z,28.93
2023-05-21T13:06:25.996Z,29.13
2023-05-21T13:07:25.949Z,29.30
2023-05-21T13:08:25.937Z,29.48
2023-05-21T13:09:25.954Z,29.63
2023-05-21T13:10:25.916Z,29.71
2023-05-21T13:11:25.945Z,29.59
2023-05-21T13:12:25.983Z,29.50
2023-05-21T13:13:25.970Z,29.42
2023-05-21T13:14:25.990Z,29.43
2023-05-21T13:15:26.097Z,29.34
2023-05-21T13:16:26.154Z,29.38
2023-05-21T13:17:26.086Z,29.42
2023-05-21T13:18:26.135Z,29.39
2023-05-21T13:19:26.303Z,29.32
2023-05-21T13:20:26.143Z,29.20
2023-05-21T13:21:26.224Z,29.14
2023-05-21T13:22:26.229Z,29.09
2023-05-21T13:23:26.257Z,29.04
2023-05-21T13:24:26.339Z,29.02
2023-05-21T13:25:26.334Z,29.13
2023-05-21T13:26:26.492Z,29.12
2023-05-21T13:27:26.446Z,29.01
2023-05-21T13:28:26.471Z,29.14
2023-05-21T13:29:26.493Z,29.36
2023-05-21T13:30:26.579Z,29.43
2023-05-21T13:31:26.559Z,29.51
2023-05-21T13:32:27.728Z,29.52
2023-05-21T13:33:26.679Z,29.43
2023-05-21T13:34:26.624Z,29.35
2023-05-21T13:35:26.636Z,29.33
2023-05-21T13:36:26.744Z,29.32
2023-05-21T13:37:26.705Z,29.23
2023-05-21T13:38:26.766Z,29.14
2023-05-21T13:39:26.826Z,29.09
2023-05-21T13:40:26.811Z,28.89
2023-05-21T13:41:26.881Z,28.78
2023-05-21T13:42:26.946Z,28.58
2023-05-21T13:43:26.851Z,28.45
2023-05-21T13:44:26.874Z,28.38
2023-05-21T13:45:26.937Z,28.33
2023-05-21T13:46:27.031Z,28.22
2023-05-21T13:47:27.045Z,28.12
2023-05-21T13:48:26.985Z,28.13
2023-05-21T13:49:27.043Z,28.22
2023-05-21T13:50:27.036Z,28.25
2023-05-21T13:51:38.584Z,28.22
2023-05-21T13:52:28.143Z,28.15
2023-05-21T13:53:27.081Z,28.13
2023-05-21T13:54:27.042Z,27.95
2023-05-21T13:55:27.072Z,27.94
2023-05-21T13:56:27.096Z,27.96
2023-05-21T13:57:26.990Z,28.00
2023-05-21T13:58:27.129Z,28.03
2023-05-21T13:59:27.105Z,28.04
2023-05-21T14:00:27.032Z,28.08
2023-05-21T14:01:27.045Z,28.13
2023-05-21T14:02:27.351Z,28.11
2023-05-21T14:03:26.977Z,28.14
2023-05-21T14:04:26.949Z,28.12
2023-05-21T14:05:27.508Z,28.16
2023-05-21T14:06:27.000Z,28.33
2023-05-21T14:07:27.010Z,28.50
2023-05-21T14:08:27.086Z,28.61
2023-05-21T14:09:27.352Z,28.77
2023-05-21T14:10:27.151Z,28.72
2023-05-21T14:11:27.155Z,28.64
2023-05-21T14:12:27.208Z,28.61
2023-05-21T14:13:27.157Z,28.30
2023-05-21T14:14:27.157Z,28.10
2023-05-21T14:15:27.223Z,27.67
2023-05-21T14:16:27.649Z,27.74
2023-05-21T14:17:27.441Z,28.06
2023-05-21T14:18:27.367Z,28.32
2023-05-21T14:19:27.584Z,28.54
2023-05-21T14:20:27.474Z,28.75
2023-05-21T14:21:27.477Z,28.92
2023-05-21T14:22:27.565Z,29.01
2023-05-21T14:23:27.574Z,29.15
2023-05-21T14:24:27.556Z,29.20
2023-05-21T14:25:27.538Z,29.19
2023-05-21T14:26:27.601Z,29.24
2023-05-21T14:27:27.530Z,29.24
2023-05-21T14:28:27.558Z,29.30
2023-05-21T14:29:27.640Z,29.29
2023-05-21T14:30:27.683Z,29.33
2023-05-21T14:31:27.809Z,29.36
2023-05-21T14:32:27.975Z,29.45
2023-05-21T14:33:27.742Z,29.36
2023-05-21T14:34:28.456Z,28.89
2023-05-21T14:35:27.834Z,28.80
2023-05-21T14:36:27.890Z,28.83
2023-05-21T14:37:27.884Z,28.80
2023-05-21T14:38:28.518Z,28.78
2023-05-21T14:39:27.991Z,28.73
2023-05-21T14:40:28.000Z,28.73
2023-05-21T14:41:28.028Z,28.78
2023-05-21T14:42:28.226Z,28.86
2023-05-21T14:43:28.117Z,28.90
2023-05-21T14:44:28.142Z,28.79
2023-05-21T14:45:28.145Z,28.81
2023-05-21T14:46:28.305Z,28.78
2023-05-21T14:47:28.317Z,28.76
2023-05-21T14:50:41.035Z,28.40
2023-05-21T14:51:40.883Z,28.48
2023-05-21T14:52:40.911Z,28.50
2023-05-21T14:53:40.943Z,28.48
2023-05-21T14:54:40.859Z,28.55
2023-05-21T14:55:41.054Z,28.59
2023-05-21T15:00:16.156Z,28.02
2023-05-21T15:01:16.638Z,28.21
2023-05-21T15:02:16.087Z,28.28
2023-05-21T15:03:16.218Z,27.76
2023-05-21T15:04:16.087Z,27.65
2023-05-21T15:05:15.989Z,27.84
2023-05-21T15:06:16.016Z,28.04
2023-05-21T15:07:16.347Z,28.21
2023-05-21T15:08:16.055Z,28.26
2023-05-21T15:09:16.015Z,28.25
2023-05-21T15:10:17.980Z,28.31
2023-05-21T15:11:15.978Z,28.25
2023-05-21T15:12:16.128Z,28.19
2023-05-21T15:13:16.956Z,28.16
2023-05-21T15:14:16.962Z,28.07
2023-05-21T15:15:15.941Z,28.00
2023-05-21T15:16:17.285Z,27.98
2023-05-21T15:17:15.912Z,28.09
2023-05-21T15:18:15.922Z,28.12
2023-05-21T15:19:16.056Z,28.26
2023-05-21T15:20:15.930Z,28.30
2023-05-21T15:21:15.961Z,28.36
2023-05-21T15:22:15.918Z,28.42
2023-05-21T15:23:17.794Z,28.52
2023-05-21T15:24:15.889Z,28.59
2023-05-21T15:25:15.888Z,28.63
2023-05-21T15:26:15.920Z,28.65
2023-05-21T15:27:15.877Z,28.80
2023-05-21T15:28:15.833Z,28.88
2023-05-21T15:29:15.846Z,28.89
2023-05-21T15:30:15.860Z,28.91
2023-05-21T15:31:16.684Z,28.97
2023-05-21T15:32:16.007Z,29.06
2023-05-21T15:35:01.748Z,28.96
2023-05-21T15:36:01.485Z,29.16
2023-05-21T15:37:01.393Z,29.16
2023-05-21T15:38:01.685Z,29.20
2023-05-21T15:39:02.083Z,29.27
2023-05-21T15:59:57.601Z,28.78
2023-05-21T16:00:57.423Z,29.10
2023-05-21T16:01:57.236Z,29.16
2023-05-21T16:09:18.975Z,28.55
2023-05-21T16:10:18.188Z,28.65
2023-05-21T16:11:18.176Z,28.77
2023-05-21T16:13:37.237Z,29.10
2023-05-21T16:14:37.242Z,29.30
2023-05-21T16:15:37.610Z,29.42
2023-05-21T16:16:37.150Z,29.52
2023-05-21T16:17:37.178Z,29.61
2023-05-21T16:18:37.058Z,29.64
2023-05-21T16:19:37.128Z,29.68
2023-05-21T16:20:37.059Z,29.59
2023-05-21T16:21:37.093Z,29.62
2023-05-21T16:22:37.086Z,29.66
2023-05-21T16:23:37.034Z,29.64
2023-05-21T16:24:37.097Z,29.52
2023-05-21T16:25:37.194Z,29.37
2023-05-21T16:26:37.004Z,29.15
2023-05-21T16:27:37.008Z,29.03
2023-05-21T16:28:37.561Z,28.95